createdAt,value
2022-12-28T00:00:10.722Z,20.87
2022-12-28T00:01:10.605Z,20.88
2022-12-28T00:02:10.666Z,20.90
2022-12-28T00:03:10.627Z,20.88
2022-12-28T00:04:10.563Z,20.87
2022-12-28T00:05:10.525Z,20.87
2022-12-28T00:06:10.542Z,20.88
2022-12-28T00:07:10.511Z,20.87
2022-12-28T00:08:10.500Z,20.87
2022-12-28T00:09:10.469Z,20.88
2022-12-28T00:10:10.480Z,20.87
2022-12-28T00:11:12.249Z,20.87
2022-12-28T00:12:10.463Z,20.88
2022-12-28T00:13:10.443Z,20.88
2022-12-28T00:14:10.476Z,20.88
2022-12-28T00:15:10.406Z,20.87
2022-12-28T00:16:10.445Z,20.88
2022-12-28T00:17:10.391Z,20.88
2022-12-28T00:18:10.392Z,20.85
2022-12-28T00:19:10.379Z,20.88
2022-12-28T00:20:10.396Z,20.87
2022-12-28T00:21:10.347Z,20.88
2022-12-28T00:22:10.351Z,20.88
2022-12-28T00:23:10.351Z,20.85
2022-12-28T00:24:10.327Z,20.87
2022-12-28T00:25:10.308Z,20.88
2022-12-28T00:26:10.328Z,20.88
2022-12-28T00:27:10.278Z,20.88
2022-12-28T00:28:10.298Z,20.88
2022-12-28T00:29:10.271Z,20.88
2022-12-28T00:30:10.292Z,20.87
2022-12-28T00:31:10.306Z,20.88
2022-12-28T00:32:10.250Z,20.88
2022-12-28T00:33:10.223Z,20.88
2022-12-28T00:34:10.228Z,20.90
2022-12-28T00:35:10.197Z,20.90
2022-12-28T00:36:10.232Z,20.91
2022-12-28T00:37:13.097Z,20.88
2022-12-28T00:38:10.187Z,20.91
2022-12-28T00:39:10.162Z,20.90
2022-12-28T00:40:10.167Z,20.88
2022-12-28T00:41:10.144Z,20.90
2022-12-28T00:42:10.196Z,20.91
2022-12-28T00:43:10.117Z,20.91
2022-12-28T00:44:10.122Z,20.91
2022-12-28T00:45:10.097Z,20.93
2022-12-28T00:46:10.226Z,20.88
2022-12-28T00:47:10.082Z,20.90
2022-12-28T00:48:10.094Z,20.91
2022-12-28T00:49:10.056Z,20.90
2022-12-28T00:50:10.059Z,20.90
2022-12-28T00:51:10.055Z,20.88
2022-12-28T00:52:10.116Z,20.91
2022-12-28T00:53:10.076Z,20.90
2022-12-28T00:54:10.073Z,20.91
2022-12-28T00:55:10.063Z,20.90
2022-12-28T00:56:10.062Z,20.88
2022-12-28T00:57:10.027Z,20.91
2022-12-28T00:58:10.049Z,20.91
2022-12-28T00:59:10.010Z,20.90
2022-12-28T01:00:10.038Z,20.90
2022-12-28T01:01:10.082Z,20.90
2022-12-28T01:02:10.081Z,20.88
2022-12-28T01:03:10.010Z,20.88
2022-12-28T01:04:09.984Z,20.90
2022-12-28T01:05:09.941Z,20.90
2022-12-28T01:06:09.976Z,20.90
2022-12-28T01:07:09.922Z,20.87
2022-12-28T01:08:09.949Z,20.88
2022-12-28T01:09:09.900Z,20.90
2022-12-28T01:10:09.909Z,20.85
2022-12-28T01:11:09.879Z,20.88
2022-12-28T01:12:09.892Z,20.88
2022-12-28T01:13:09.863Z,20.87
2022-12-28T01:14:09.908Z,20.87
2022-12-28T01:15:09.844Z,20.87
2022-12-28T01:16:09.867Z,20.87
2022-12-28T01:17:09.843Z,20.87
2022-12-28T01:18:09.841Z,20.87
2022-12-28T01:19:09.824Z,20.87
2022-12-28T01:20:09.803Z,20.87
2022-12-28T01:21:09.781Z,20.85
2022-12-28T01:22:09.804Z,20.87
2022-12-28T01:23:09.759Z,20.85
2022-12-28T01:24:09.791Z,20.87
2022-12-28T01:25:09.749Z,20.83
2022-12-28T01:26:09.740Z,20.85
2022-12-28T01:27:09.759Z,20.85
2022-12-28T01:28:09.716Z,20.83
2022-12-28T01:29:09.712Z,20.85
2022-12-28T01:30:09.740Z,20.87
2022-12-28T01:31:09.744Z,20.85
2022-12-28T01:32:09.810Z,20.85
2022-12-28T01:33:09.668Z,20.85
2022-12-28T01:34:09.665Z,20.85
2022-12-28T01:35:09.664Z,20.85
2022-12-28T01:36:09.628Z,20.85
2022-12-28T01:37:09.650Z,20.83
2022-12-28T01:38:09.623Z,20.85
2022-12-28T01:39:09.617Z,20.83
2022-12-28T01:40:09.602Z,20.87
2022-12-28T01:41:09.620Z,20.85
2022-12-28T01:42:09.559Z,20.83
2022-12-28T01:43:09.579Z,20.83
2022-12-28T01:44:09.544Z,20.83
2022-12-28T01:45:09.566Z,20.85
2022-12-28T01:46:09.575Z,20.85
2022-12-28T01:47:09.539Z,20.85
2022-12-28T01:48:09.511Z,20.83
2022-12-28T01:49:09.501Z,20.83
2022-12-28T01:50:09.504Z,20.85
2022-12-28T01:51:09.481Z,20.83
2022-12-28T01:52:09.473Z,20.85
2022-12-28T01:53:09.452Z,20.85
2022-12-28T01:54:09.445Z,20.85
2022-12-28T01:55:09.447Z,20.85
2022-12-28T01:56:09.433Z,20.85
2022-12-28T01:57:09.447Z,20.82
2022-12-28T01:58:09.418Z,20.85
2022-12-28T01:59:09.397Z,20.85
2022-12-28T02:00:09.379Z,20.85
2022-12-28T02:01:09.505Z,20.83
2022-12-28T02:02:09.521Z,20.85
2022-12-28T02:03:09.531Z,20.85
2022-12-28T02:04:09.355Z,20.85
2022-12-28T02:05:09.339Z,20.83
2022-12-28T02:06:09.314Z,20.83
2022-12-28T02:07:09.344Z,20.83
2022-12-28T02:08:09.301Z,20.83
2022-12-28T02:09:09.309Z,20.85
2022-12-28T02:10:42.682Z,20.82
2022-12-28T02:11:09.282Z,20.83
2022-12-28T02:12:09.261Z,20.82
2022-12-28T02:13:09.288Z,20.83
2022-12-28T02:14:09.228Z,20.85
2022-12-28T02:15:09.236Z,20.85
2022-12-28T02:16:09.210Z,20.87
2022-12-28T02:17:09.373Z,20.85
2022-12-28T02:18:09.188Z,20.83
2022-12-28T02:19:09.230Z,20.87
2022-12-28T02:20:09.164Z,20.83
2022-12-28T02:21:09.177Z,20.83
2022-12-28T02:22:09.148Z,20.83
2022-12-28T02:23:09.150Z,20.83
2022-12-28T02:24:09.154Z,20.83
2022-12-28T02:25:12.219Z,20.85
2022-12-28T02:26:09.104Z,20.85
2022-12-28T02:27:09.108Z,20.83
2022-12-28T02:28:09.107Z,20.85
2022-12-28T02:29:09.091Z,20.82
2022-12-28T02:30:09.075Z,20.82
2022-12-28T02:31:09.118Z,20.83
2022-12-28T02:32:09.043Z,20.83
2022-12-28T02:33:09.050Z,20.85
2022-12-28T02:34:09.036Z,20.82
2022-12-28T02:35:09.026Z,20.82
2022-12-28T02:36:13.057Z,20.83
2022-12-28T02:37:09.014Z,20.83
2022-12-28T02:38:09.001Z,20.85
2022-12-28T02:39:08.987Z,20.85
2022-12-28T02:40:08.970Z,20.83
2022-12-28T02:41:08.967Z,20.83
2022-12-28T02:42:08.933Z,20.83
2022-12-28T02:43:08.944Z,20.85
2022-12-28T02:44:08.943Z,20.87
2022-12-28T02:45:08.925Z,20.85
2022-12-28T02:46:08.961Z,20.87
2022-12-28T02:47:08.906Z,20.83
2022-12-28T02:48:08.878Z,20.85
2022-12-28T02:49:08.885Z,20.87
2022-12-28T02:50:08.927Z,20.85
2022-12-28T02:51:08.859Z,20.85
2022-12-28T02:52:08.852Z,20.87
2022-12-28T02:53:08.847Z,20.85
2022-12-28T02:54:08.811Z,20.87
2022-12-28T02:55:08.845Z,20.87
2022-12-28T02:56:08.809Z,20.85
2022-12-28T02:57:08.796Z,20.87
2022-12-28T02:58:08.775Z,20.87
2022-12-28T02:59:08.784Z,20.87
2022-12-28T03:00:08.754Z,20.87
2022-12-28T03:01:08.864Z,20.87
2022-12-28T03:02:08.928Z,20.88
2022-12-28T03:03:08.766Z,20.88
2022-12-28T03:04:08.706Z,20.87
2022-12-28T03:05:08.723Z,20.87
2022-12-28T03:06:08.684Z,20.88
2022-12-28T03:07:08.719Z,20.85
2022-12-28T03:08:08.672Z,20.87
2022-12-28T03:09:08.675Z,20.87
2022-12-28T03:10:08.651Z,20.87
2022-12-28T03:11:08.659Z,20.88
2022-12-28T03:12:08.635Z,20.88
2022-12-28T03:13:08.665Z,20.88
2022-12-28T03:14:08.605Z,20.88
2022-12-28T03:15:08.612Z,20.87
2022-12-28T03:16:08.612Z,20.87
2022-12-28T03:17:08.588Z,20.88
2022-12-28T03:18:08.562Z,20.87
2022-12-28T03:19:08.592Z,20.87
2022-12-28T03:20:08.568Z,20.88
2022-12-28T03:21:08.547Z,20.88
2022-12-28T03:22:08.527Z,20.88
2022-12-28T03:23:08.572Z,20.87
2022-12-28T03:24:08.503Z,20.88
2022-12-28T03:25:08.506Z,20.87
2022-12-28T03:26:08.483Z,20.87
2022-12-28T03:27:08.485Z,20.88
2022-12-28T03:28:08.459Z,20.88
2022-12-28T03:29:08.479Z,20.85
2022-12-28T03:30:08.460Z,20.85
2022-12-28T03:31:08.538Z,20.88
2022-12-28T03:32:08.419Z,20.85
2022-12-28T03:33:08.424Z,20.87
2022-12-28T03:34:08.423Z,20.87
2022-12-28T03:35:08.397Z,20.88
2022-12-28T03:36:08.418Z,20.85
2022-12-28T03:37:08.382Z,20.87
2022-12-28T03:38:08.356Z,20.87
2022-12-28T03:39:08.373Z,20.87
2022-12-28T03:40:08.375Z,20.87
2022-12-28T03:41:08.343Z,20.87
2022-12-28T03:42:08.338Z,20.85
2022-12-28T03:43:08.386Z,20.87
2022-12-28T03:44:08.291Z,20.85
2022-12-28T03:45:08.310Z,20.87
2022-12-28T03:46:08.371Z,20.88
2022-12-28T03:47:08.283Z,20.85
2022-12-28T03:48:08.280Z,20.85
2022-12-28T03:49:08.316Z,20.87
2022-12-28T03:50:08.320Z,20.87
2022-12-28T03:51:08.264Z,20.87
2022-12-28T03:52:08.282Z,20.85
2022-12-28T03:53:08.218Z,20.87
2022-12-28T03:54:08.180Z,20.88
2022-12-28T03:55:08.202Z,20.85
2022-12-28T03:56:08.166Z,20.88
2022-12-28T03:57:08.178Z,20.88
2022-12-28T03:58:08.137Z,20.87
2022-12-28T03:59:08.150Z,20.87
2022-12-28T04:00:08.139Z,20.87
2022-12-28T04:01:08.365Z,20.87
2022-12-28T04:02:08.255Z,20.87
2022-12-28T04:03:08.208Z,20.87
2022-12-28T04:04:08.078Z,20.85
2022-12-28T04:05:08.099Z,20.83
2022-12-28T04:06:08.061Z,20.87
2022-12-28T04:07:08.064Z,20.85
2022-12-28T04:08:08.041Z,20.87
2022-12-28T04:09:08.049Z,20.85
2022-12-28T04:10:08.013Z,20.88
2022-12-28T04:11:08.039Z,20.87
2022-12-28T04:12:07.995Z,20.87
2022-12-28T04:13:07.997Z,20.87
2022-12-28T04:14:11.020Z,20.83
2022-12-28T04:15:07.987Z,20.85
2022-12-28T04:16:08.052Z,20.87
2022-12-28T04:17:07.981Z,20.85
2022-12-28T04:18:07.938Z,20.87
2022-12-28T04:19:07.947Z,20.87
2022-12-28T04:20:07.934Z,20.87
2022-12-28T04:21:07.927Z,20.85
2022-12-28T04:22:07.897Z,20.85
2022-12-28T04:23:07.922Z,20.87
2022-12-28T04:24:07.875Z,20.85
2022-12-28T04:25:07.888Z,20.85
2022-12-28T04:26:07.869Z,20.85
2022-12-28T04:27:07.865Z,20.87
2022-12-28T04:28:07.836Z,20.88
2022-12-28T04:29:07.883Z,20.88
2022-12-28T04:30:07.820Z,20.87
2022-12-28T04:31:07.857Z,20.87
2022-12-28T04:32:07.797Z,20.88
2022-12-28T04:33:07.796Z,20.88
2022-12-28T04:34:07.771Z,20.88
2022-12-28T04:35:07.809Z,20.88
2022-12-28T04:36:07.774Z,20.90
2022-12-28T04:37:07.756Z,20.88
2022-12-28T04:38:07.731Z,20.88
2022-12-28T04:39:07.734Z,20.90
2022-12-28T04:40:07.711Z,20.88
2022-12-28T04:41:07.751Z,20.88
2022-12-28T04:42:07.710Z,20.87
2022-12-28T04:43:07.693Z,20.87
2022-12-28T04:44:07.675Z,20.88
2022-12-28T04:45:07.673Z,20.88
2022-12-28T04:46:07.737Z,20.88
2022-12-28T04:47:07.675Z,20.87
2022-12-28T04:48:07.631Z,20.88
2022-12-28T04:49:07.632Z,20.90
2022-12-28T04:50:07.613Z,20.87
2022-12-28T04:51:07.617Z,20.88
2022-12-28T04:52:07.587Z,20.87
2022-12-28T04:53:07.619Z,20.88
2022-12-28T04:54:07.588Z,20.88
2022-12-28T04:55:07.568Z,20.88
2022-12-28T04:56:07.550Z,20.87
2022-12-28T04:57:07.549Z,20.87
2022-12-28T04:58:07.523Z,20.87
2022-12-28T04:59:07.614Z,20.87
2022-12-28T05:00:07.502Z,20.87
2022-12-28T05:01:07.658Z,20.87
2022-12-28T05:02:07.656Z,20.88
2022-12-28T05:03:07.533Z,20.87
2022-12-28T05:04:07.477Z,20.88
2022-12-28T05:05:07.469Z,20.85
2022-12-28T05:06:07.459Z,20.88
2022-12-28T05:07:07.442Z,20.88
2022-12-28T05:08:07.422Z,20.88
2022-12-28T05:09:07.422Z,20.87
2022-12-28T05:10:07.402Z,20.87
2022-12-28T05:11:07.433Z,20.87
2022-12-28T05:12:07.411Z,20.88
2022-12-28T05:13:07.397Z,20.90
2022-12-28T05:14:07.369Z,20.85
2022-12-28T05:15:07.373Z,20.87
2022-12-28T05:16:07.401Z,20.85
2022-12-28T05:17:07.347Z,20.87
2022-12-28T05:18:07.409Z,20.87
2022-12-28T05:19:07.343Z,20.87
2022-12-28T05:20:07.305Z,20.85
2022-12-28T05:21:07.301Z,20.85
2022-12-28T05:22:07.275Z,20.87
2022-12-28T05:23:07.292Z,20.87
2022-12-28T05:24:07.280Z,20.88
2022-12-28T05:25:07.262Z,20.87
2022-12-28T05:26:07.230Z,20.87
2022-12-28T05:27:07.235Z,20.87
2022-12-28T05:28:07.210Z,20.88
2022-12-28T05:29:07.216Z,20.88
2022-12-28T05:30:07.224Z,20.88
2022-12-28T05:31:07.280Z,20.87
2022-12-28T05:32:07.174Z,20.87
2022-12-28T05:33:07.195Z,20.88
2022-12-28T05:34:07.156Z,20.90
2022-12-28T05:35:07.167Z,20.88
2022-12-28T05:36:07.173Z,20.87
2022-12-28T05:37:07.151Z,20.87
2022-12-28T05:38:07.113Z,20.90
2022-12-28T05:39:07.111Z,20.90
2022-12-28T05:40:07.092Z,20.90
2022-12-28T05:41:07.105Z,20.91
2022-12-28T05:42:07.090Z,20.90
2022-12-28T05:43:07.076Z,20.90
2022-12-28T05:44:07.063Z,20.90
2022-12-28T05:45:07.058Z,20.91
2022-12-28T05:46:07.024Z,20.90
2022-12-28T05:47:07.085Z,20.90
2022-12-28T05:48:07.025Z,20.91
2022-12-28T05:49:07.008Z,20.91
2022-12-28T05:50:07.025Z,20.91
2022-12-28T05:51:06.994Z,20.91
2022-12-28T05:52:06.989Z,20.91
2022-12-28T05:53:06.956Z,20.90
2022-12-28T05:54:06.977Z,20.91
2022-12-28T05:55:06.933Z,20.91
2022-12-28T05:56:12.147Z,20.90
2022-12-28T05:57:06.927Z,20.91
2022-12-28T05:58:06.929Z,20.91
2022-12-28T05:59:06.913Z,20.90
2022-12-28T06:00:06.893Z,20.93
2022-12-28T06:01:06.907Z,20.91
2022-12-28T06:02:07.021Z,20.90
2022-12-28T06:03:07.046Z,20.90
2022-12-28T06:04:06.863Z,20.91
2022-12-28T06:05:06.857Z,20.91
2022-12-28T06:06:06.839Z,20.91
2022-12-28T06:07:06.809Z,20.91
2022-12-28T06:08:06.823Z,20.91
2022-12-28T06:09:06.799Z,20.91
2022-12-28T06:10:06.804Z,20.88
2022-12-28T06:11:06.793Z,20.90
2022-12-28T06:12:06.782Z,20.88
2022-12-28T06:13:06.747Z,20.90
2022-12-28T06:14:06.746Z,20.93
2022-12-28T06:15:06.728Z,20.91
2022-12-28T06:16:06.763Z,20.90
2022-12-28T06:17:06.725Z,20.91
2022-12-28T06:18:06.718Z,20.91
2022-12-28T06:19:06.681Z,20.91
2022-12-28T06:20:06.690Z,20.91
2022-12-28T06:21:06.690Z,20.90
2022-12-28T06:22:06.664Z,20.91
2022-12-28T06:23:06.664Z,20.91
2022-12-28T06:24:06.658Z,20.90
2022-12-28T06:25:06.635Z,20.90
2022-12-28T06:26:06.632Z,20.91
2022-12-28T06:27:06.609Z,20.90
2022-12-28T06:28:06.610Z,20.91
2022-12-28T06:29:06.606Z,20.88
2022-12-28T06:30:06.585Z,20.91
2022-12-28T06:31:06.535Z,20.91
2022-12-28T06:32:06.544Z,20.94
2022-12-28T06:33:06.481Z,20.93
2022-12-28T06:34:06.487Z,20.96
2022-12-28T06:35:06.488Z,20.96
2022-12-28T06:36:06.470Z,20.96
2022-12-28T06:37:06.444Z,20.96
2022-12-28T06:38:06.453Z,20.96
2022-12-28T06:39:06.427Z,20.98
2022-12-28T06:40:06.445Z,20.97
2022-12-28T06:41:14.851Z,20.98
2022-12-28T06:42:06.416Z,20.98
2022-12-28T06:43:06.383Z,20.98
2022-12-28T06:44:06.388Z,20.98
2022-12-28T06:45:06.400Z,20.98
2022-12-28T06:46:06.409Z,21.00
2022-12-28T06:47:06.346Z,20.98
2022-12-28T06:48:06.348Z,20.98
2022-12-28T06:49:06.320Z,21.00
2022-12-28T06:50:06.328Z,21.00
2022-12-28T06:51:06.320Z,20.98
2022-12-28T06:52:06.298Z,21.00
2022-12-28T06:53:06.275Z,20.98
2022-12-28T06:54:06.279Z,20.97
2022-12-28T06:55:06.281Z,20.98
2022-12-28T06:56:06.259Z,20.98
2022-12-28T06:57:06.239Z,20.98
2022-12-28T06:58:06.238Z,20.97
2022-12-28T06:59:06.219Z,20.96
2022-12-28T07:00:06.223Z,20.97
2022-12-28T07:01:06.400Z,20.96
2022-12-28T07:02:06.406Z,20.96
2022-12-28T07:03:06.293Z,20.94
2022-12-28T07:04:06.228Z,20.94
2022-12-28T07:05:06.202Z,20.96
2022-12-28T07:06:06.243Z,20.96
2022-12-28T07:07:06.217Z,20.97
2022-12-28T07:08:12.254Z,20.96
2022-12-28T07:09:06.171Z,20.94
2022-12-28T07:10:06.176Z,20.96
2022-12-28T07:11:06.150Z,20.94
2022-12-28T07:12:06.155Z,20.94
2022-12-28T07:13:06.160Z,20.94
2022-12-28T07:14:06.152Z,20.94
2022-12-28T07:15:06.100Z,20.94
2022-12-28T07:16:06.107Z,20.94
2022-12-28T07:17:06.086Z,20.94
2022-12-28T07:18:06.089Z,20.96
2022-12-28T07:19:06.078Z,20.96
2022-12-28T07:20:06.067Z,20.94
2022-12-28T07:21:06.077Z,20.93
2022-12-28T07:22:06.049Z,20.94
2022-12-28T07:23:06.023Z,20.91
2022-12-28T07:24:06.059Z,20.93
2022-12-28T07:25:06.107Z,20.91
2022-12-28T07:26:05.998Z,20.90
2022-12-28T07:27:05.975Z,20.93
2022-12-28T07:28:05.996Z,20.93
2022-12-28T07:29:05.958Z,20.93
2022-12-28T07:30:05.975Z,20.93
2022-12-28T07:31:05.965Z,20.93
2022-12-28T07:32:05.969Z,20.91
2022-12-28T07:33:05.914Z,20.94
2022-12-28T07:34:05.930Z,20.94
2022-12-28T07:35:05.895Z,20.94
2022-12-28T07:36:05.897Z,20.93
2022-12-28T07:37:05.877Z,20.91
2022-12-28T07:38:05.908Z,20.94
2022-12-28T07:39:05.851Z,20.93
2022-12-28T07:40:05.870Z,20.94
2022-12-28T07:41:05.869Z,20.93
2022-12-28T07:42:05.859Z,20.93
2022-12-28T07:43:05.813Z,20.93
2022-12-28T07:44:05.867Z,20.94
2022-12-28T07:45:05.788Z,20.94
2022-12-28T07:46:05.841Z,20.93
2022-12-28T07:47:05.768Z,20.94
2022-12-28T07:48:05.774Z,20.94
2022-12-28T07:49:05.767Z,20.94
2022-12-28T07:50:05.797Z,20.93
2022-12-28T07:51:05.733Z,20.94
2022-12-28T07:52:05.738Z,20.93
2022-12-28T07:53:05.714Z,20.91
2022-12-28T07:54:05.718Z,20.93
2022-12-28T07:55:05.697Z,20.93
2022-12-28T07:56:05.713Z,20.94
2022-12-28T07:57:05.693Z,20.94
2022-12-28T07:58:05.666Z,20.93
2022-12-28T07:59:05.761Z,20.93
2022-12-28T08:00:05.654Z,20.91
2022-12-28T08:01:05.661Z,20.93
2022-12-28T08:02:05.718Z,20.90
2022-12-28T08:03:05.743Z,20.93
2022-12-28T08:04:05.669Z,20.91
2022-12-28T08:05:05.585Z,20.91
2022-12-28T08:06:05.585Z,20.94
2022-12-28T08:07:05.561Z,20.91
2022-12-28T08:08:05.569Z,20.93
2022-12-28T08:09:05.541Z,20.90
2022-12-28T08:10:05.570Z,20.91
2022-12-28T08:11:05.559Z,20.91
2022-12-28T08:12:05.525Z,20.93
2022-12-28T08:13:05.497Z,20.90
2022-12-28T08:14:05.525Z,20.88
2022-12-28T08:15:05.438Z,20.90
2022-12-28T08:16:05.538Z,20.90
2022-12-28T08:17:05.414Z,20.90
2022-12-28T08:18:05.412Z,20.90
2022-12-28T08:19:05.401Z,20.90
2022-12-28T08:20:05.392Z,20.91
2022-12-28T08:21:05.380Z,20.90
2022-12-28T08:22:05.370Z,20.88
2022-12-28T08:23:05.340Z,20.91
2022-12-28T08:24:05.428Z,20.88
2022-12-28T08:25:05.363Z,20.91
2022-12-28T08:26:05.348Z,20.91
2022-12-28T08:27:05.331Z,20.91
2022-12-28T08:28:05.311Z,20.88
2022-12-28T08:29:05.282Z,20.88
2022-12-28T08:30:05.287Z,20.88
2022-12-28T08:31:05.322Z,20.90
2022-12-28T08:32:05.274Z,20.91
2022-12-28T08:33:05.241Z,20.90
2022-12-28T08:34:05.251Z,20.90
2022-12-28T08:35:05.221Z,20.88
2022-12-28T08:36:05.218Z,20.91
2022-12-28T08:37:05.238Z,20.88
2022-12-28T08:38:05.199Z,20.88
2022-12-28T08:39:05.201Z,20.88
2022-12-28T08:40:05.192Z,20.88
2022-12-28T08:41:05.172Z,20.88
2022-12-28T08:42:05.179Z,20.88
2022-12-28T08:43:05.157Z,20.88
2022-12-28T08:44:05.135Z,20.87
2022-12-28T08:45:05.114Z,20.88
2022-12-28T08:46:05.344Z,20.87
2022-12-28T08:47:05.151Z,20.87
2022-12-28T08:48:05.107Z,20.87
2022-12-28T08:49:05.129Z,20.88
2022-12-28T08:50:05.077Z,20.87
2022-12-28T08:51:05.054Z,20.88
2022-12-28T08:52:05.065Z,20.85
2022-12-28T08:53:05.033Z,20.87
2022-12-28T08:54:05.054Z,20.87
2022-12-28T08:55:05.010Z,20.87
2022-12-28T08:56:06.853Z,20.87
2022-12-28T08:57:05.025Z,20.87
2022-12-28T08:58:04.991Z,20.85
2022-12-28T08:59:05.011Z,20.87
2022-12-28T09:00:05.005Z,20.88
2022-12-28T09:01:05.102Z,20.87
2022-12-28T09:02:05.155Z,20.85
2022-12-28T09:03:05.060Z,20.87
2022-12-28T09:04:04.988Z,20.88
2022-12-28T09:05:04.961Z,20.87
2022-12-28T09:06:04.997Z,20.87
2022-12-28T09:07:04.941Z,20.87
2022-12-28T09:08:04.942Z,20.85
2022-12-28T09:09:06.648Z,20.88
2022-12-28T09:10:05.027Z,20.88
2022-12-28T09:11:04.898Z,20.85
2022-12-28T09:12:04.923Z,20.88
2022-12-28T09:13:04.902Z,20.87
2022-12-28T09:14:04.917Z,20.87
2022-12-28T09:15:04.859Z,20.87
2022-12-28T09:16:04.910Z,20.88
2022-12-28T09:17:04.854Z,20.87
2022-12-28T09:18:04.833Z,20.87
2022-12-28T09:19:04.833Z,20.83
2022-12-28T09:20:04.849Z,20.87
2022-12-28T09:21:04.792Z,20.87
2022-12-28T09:22:04.791Z,20.88
2022-12-28T09:23:04.798Z,20.87
2022-12-28T09:24:04.770Z,20.87
2022-12-28T09:25:04.752Z,20.87
2022-12-28T09:26:04.753Z,20.87
2022-12-28T09:27:04.727Z,20.85
2022-12-28T09:28:04.726Z,20.87
2022-12-28T09:29:04.730Z,20.87
2022-12-28T09:30:04.707Z,20.85
2022-12-28T09:31:04.800Z,20.85
2022-12-28T09:32:04.708Z,20.87
2022-12-28T09:33:04.661Z,20.87
2022-12-28T09:35:04.670Z,20.87
2022-12-28T09:36:04.650Z,20.87
2022-12-28T09:37:04.621Z,20.83
2022-12-28T09:38:04.631Z,20.85
2022-12-28T09:39:04.696Z,20.87
2022-12-28T09:40:04.609Z,20.85
2022-12-28T09:41:04.603Z,20.85
2022-12-28T09:42:04.612Z,20.85
2022-12-28T09:43:04.577Z,20.85
2022-12-28T09:44:04.585Z,20.85
2022-12-28T09:45:04.498Z,20.85
2022-12-28T09:46:04.567Z,20.87
2022-12-28T09:47:04.502Z,20.87
2022-12-28T09:48:04.476Z,20.85
2022-12-28T09:49:04.469Z,20.85
2022-12-28T09:50:04.454Z,20.87
2022-12-28T09:51:04.423Z,20.87
2022-12-28T09:52:04.457Z,20.85
2022-12-28T09:53:04.434Z,20.85
2022-12-28T09:54:04.415Z,20.85
2022-12-28T09:55:04.400Z,20.85
2022-12-28T09:56:04.403Z,20.85
2022-12-28T09:57:04.377Z,20.87
2022-12-28T09:58:04.401Z,20.85
2022-12-28T09:59:04.343Z,20.87
2022-12-28T10:00:04.355Z,20.83
2022-12-28T10:01:04.411Z,20.85
2022-12-28T10:02:04.459Z,20.85
2022-12-28T10:03:04.359Z,20.83
2022-12-28T10:04:04.330Z,20.83
2022-12-28T10:05:04.280Z,20.85
2022-12-28T10:06:04.296Z,20.85
2022-12-28T10:07:04.276Z,20.83
2022-12-28T10:08:04.248Z,20.83
2022-12-28T10:09:04.279Z,20.83
2022-12-28T10:10:04.253Z,20.85
2022-12-28T10:11:04.238Z,20.85
2022-12-28T10:12:04.206Z,20.85
2022-12-28T10:13:06.655Z,20.83
2022-12-28T10:14:04.239Z,20.83
2022-12-28T10:15:04.272Z,20.85
2022-12-28T10:16:04.284Z,20.83
2022-12-28T10:17:04.175Z,20.85
2022-12-28T10:18:04.147Z,20.83
2022-12-28T10:19:04.169Z,20.83
2022-12-28T10:20:04.124Z,20.83
2022-12-28T10:21:04.139Z,20.83
2022-12-28T10:22:04.107Z,20.83
2022-12-28T10:23:04.112Z,20.85
2022-12-28T10:24:30.269Z,20.85
2022-12-28T10:25:04.099Z,20.87
2022-12-28T10:26:04.063Z,20.83
2022-12-28T10:27:04.064Z,20.85
2022-12-28T10:28:04.091Z,20.83
2022-12-28T10:29:04.122Z,20.83
2022-12-28T10:30:04.017Z,20.83
2022-12-28T10:31:04.127Z,20.83
2022-12-28T10:32:03.995Z,20.85
2022-12-28T10:33:04.012Z,20.83
2022-12-28T10:34:04.052Z,20.85
2022-12-28T10:35:04.012Z,20.83
2022-12-28T10:36:03.976Z,20.87
2022-12-28T10:37:03.961Z,20.82
2022-12-28T10:38:03.935Z,20.82
2022-12-28T10:39:03.968Z,20.83
2022-12-28T10:40:03.938Z,20.87
2022-12-28T10:41:03.916Z,20.85
2022-12-28T10:42:03.895Z,20.83
2022-12-28T10:43:10.214Z,20.83
2022-12-28T10:44:37.862Z,20.83
2022-12-28T10:45:03.921Z,20.83
2022-12-28T10:46:03.872Z,20.83
2022-12-28T10:47:03.950Z,20.83
2022-12-28T10:48:03.835Z,20.83
2022-12-28T10:49:03.839Z,20.83
2022-12-28T10:50:36.018Z,20.83
2022-12-28T10:51:03.826Z,20.83
2022-12-28T10:52:03.802Z,20.85
2022-12-28T10:53:03.794Z,20.85
2022-12-28T10:54:03.781Z,20.83
2022-12-28T10:55:07.973Z,20.83
2022-12-28T10:56:03.782Z,20.85
2022-12-28T10:57:03.811Z,20.83
2022-12-28T10:58:28.707Z,20.82
2022-12-28T10:59:03.786Z,20.85
2022-12-28T11:00:04.084Z,20.83
2022-12-28T11:01:04.006Z,20.83
2022-12-28T11:02:03.962Z,20.83
2022-12-28T11:03:03.781Z,20.85
2022-12-28T11:04:03.661Z,20.82
2022-12-28T11:05:03.697Z,20.85
2022-12-28T11:06:03.714Z,20.87
2022-12-28T11:07:03.705Z,20.85
2022-12-28T11:08:03.678Z,20.83
2022-12-28T11:09:03.666Z,20.83
2022-12-28T11:10:03.603Z,20.83
2022-12-28T11:11:03.691Z,20.83
2022-12-28T11:12:03.629Z,20.85
2022-12-28T11:13:03.583Z,20.83
2022-12-28T11:14:03.609Z,20.87
2022-12-28T11:15:03.580Z,20.85
2022-12-28T11:16:03.570Z,20.85
2022-12-28T11:17:03.556Z,20.82
2022-12-28T11:18:03.534Z,20.85
2022-12-28T11:19:03.528Z,20.85
2022-12-28T11:20:03.509Z,20.85
2022-12-28T11:21:03.501Z,20.85
2022-12-28T11:22:03.494Z,20.85
2022-12-28T11:23:03.477Z,20.85
2022-12-28T11:24:03.455Z,20.85
2022-12-28T11:25:03.462Z,20.87
2022-12-28T11:26:03.447Z,20.87
2022-12-28T11:27:03.441Z,20.87
2022-12-28T11:28:03.432Z,20.90
2022-12-28T11:29:03.423Z,20.87
2022-12-28T11:30:03.389Z,20.87
2022-12-28T11:31:03.403Z,20.88
2022-12-28T11:32:03.378Z,20.88
2022-12-28T11:33:03.378Z,20.88
2022-12-28T11:34:03.387Z,20.85
2022-12-28T11:35:03.377Z,20.90
2022-12-28T11:36:06.964Z,20.90
2022-12-28T11:37:03.345Z,20.88
2022-12-28T11:38:03.313Z,20.88
2022-12-28T11:39:03.344Z,20.90
2022-12-28T11:40:03.286Z,20.88
2022-12-28T11:41:03.290Z,20.90
2022-12-28T11:42:37.143Z,20.91
2022-12-28T11:43:03.274Z,20.90
2022-12-28T11:44:03.279Z,20.91
2022-12-28T11:45:03.341Z,20.91
2022-12-28T11:46:03.347Z,20.90
2022-12-28T11:47:03.292Z,20.90
2022-12-28T11:48:03.275Z,20.93
2022-12-28T11:49:03.241Z,20.91
2022-12-28T11:50:03.217Z,20.90
2022-12-28T11:51:03.206Z,20.91
2022-12-28T11:52:03.164Z,20.91
2022-12-28T11:53:04.766Z,20.91
2022-12-28T11:54:03.155Z,20.93
2022-12-28T11:55:03.220Z,20.90
2022-12-28T11:56:03.232Z,20.93
2022-12-28T11:57:03.143Z,20.91
2022-12-28T11:58:03.105Z,20.90
2022-12-28T11:59:03.128Z,20.91
2022-12-28T12:00:03.105Z,20.90
2022-12-28T12:01:03.145Z,20.90
2022-12-28T12:02:03.148Z,20.91
2022-12-28T12:03:03.140Z,20.90
2022-12-28T12:04:03.048Z,20.91
2022-12-28T12:05:03.045Z,20.88
2022-12-28T12:06:03.081Z,20.91
2022-12-28T12:07:03.030Z,20.88
2022-12-28T12:08:03.027Z,20.90
2022-12-28T12:09:03.008Z,20.90
2022-12-28T12:10:03.001Z,20.90
2022-12-28T12:11:03.015Z,20.90
2022-12-28T12:12:02.963Z,20.90
2022-12-28T12:13:02.995Z,20.90
2022-12-28T12:14:02.967Z,20.90
2022-12-28T12:15:02.946Z,20.88
2022-12-28T12:16:02.924Z,20.91
2022-12-28T12:17:03.141Z,20.91
2022-12-28T12:18:02.896Z,20.91
2022-12-28T12:19:02.899Z,20.90
2022-12-28T12:20:02.891Z,20.90
2022-12-28T12:21:02.908Z,20.91
2022-12-28T12:22:02.874Z,20.91
2022-12-28T12:23:02.876Z,20.93
2022-12-28T12:24:02.834Z,20.93
2022-12-28T12:25:02.838Z,20.91
2022-12-28T12:26:02.808Z,20.93
2022-12-28T12:27:07.273Z,20.94
2022-12-28T12:28:02.792Z,20.94
2022-12-28T12:29:02.801Z,20.93
2022-12-28T12:30:02.814Z,20.93
2022-12-28T12:31:02.848Z,20.93
2022-12-28T12:32:02.759Z,20.93
2022-12-28T12:33:02.764Z,20.94
2022-12-28T12:34:02.727Z,20.94
2022-12-28T12:35:02.731Z,20.93
2022-12-28T12:36:02.725Z,20.93
2022-12-28T12:37:02.714Z,20.94
2022-12-28T12:38:02.697Z,20.94
2022-12-28T12:39:02.689Z,20.94
2022-12-28T12:40:02.678Z,20.94
2022-12-28T12:41:02.700Z,20.94
2022-12-28T12:42:02.642Z,20.93
2022-12-28T12:43:02.662Z,20.93
2022-12-28T12:44:02.622Z,20.93
2022-12-28T12:45:02.644Z,20.93
2022-12-28T12:46:02.717Z,20.93
2022-12-28T12:47:05.855Z,20.93
2022-12-28T12:48:02.592Z,20.94
2022-12-28T12:49:02.590Z,20.91
2022-12-28T12:50:02.563Z,20.94
2022-12-28T12:51:02.589Z,20.93
2022-12-28T12:52:02.536Z,20.94
2022-12-28T12:53:02.713Z,20.93